Time;durP1;ratioP1;P1;durP2;ratioP2;P2;SDS_P1;SDS_P2;PMS_P1;PMS_P2;Temp;Humidity;BMP_temperature;BMP_pressure;BME280_temperature;BME280_humidity;BME280_pressure;Samples;Min_cycle;Max_cycle;Signal;HPM_P1;HPM_P2
2021/03/22 00:00:41;;;;;;;1.47;1.37;;;6.30;99.90;;;;;;4984182;28;20250;-87
2021/03/22 00:03:07;;;;;;;5.70;2.67;;;6.30;99.90;;;;;;5003770;28;20197;-88
2021/03/22 00:05:34;;;;;;;23.33;1.77;;;6.30;99.90;;;;;;4998538;28;20211;-87
2021/03/22 00:08:00;;;;;;;7.50;1.80;;;6.30;99.90;;;;;;4982402;28;20839;-88
2021/03/22 00:10:29;;;;;;;6.03;1.33;;;6.30;99.90;;;;;;4981577;28;20766;-88
2021/03/22 00:12:55;;;;;;;5.80;1.83;;;6.30;99.90;;;;;;4995789;28;20219;-88
2021/03/22 00:15:22;;;;;;;5.23;2.27;;;6.30;99.90;;;;;;4964616;28;20238;-85
2021/03/22 00:17:49;;;;;;;5.83;1.63;;;6.20;99.90;;;;;;4982032;28;20204;-86
2021/03/22 00:20:15;;;;;;;4.23;2.17;;;6.20;99.90;;;;;;4983242;28;20365;-86
2021/03/22 00:22:41;;;;;;;2.10;0.43;;;6.20;99.90;;;;;;4983963;28;20250;-87
2021/03/22 00:25:07;;;;;;;0.63;0.63;;;6.20;99.90;;;;;;4984557;28;20676;-87
2021/03/22 00:27:33;;;;;;;6.27;0.93;;;6.20;99.90;;;;;;4951997;28;20198;-86
2021/03/22 00:29:59;;;;;;;1.53;0.63;;;6.20;99.90;;;;;;4969096;28;20191;-86
2021/03/22 00:32:25;;;;;;;1.03;1.03;;;6.10;99.90;;;;;;4983733;28;20281;-87
2021/03/22 00:34:51;;;;;;;0.93;0.93;;;6.20;99.90;;;;;;4984538;28;20223;-86
2021/03/22 00:37:17;;;;;;;0.80;0.63;;;6.10;99.90;;;;;;4978282;28;20265;-86
2021/03/22 00:39:43;;;;;;;4.40;1.00;;;6.10;99.90;;;;;;4979225;28;20697;-86
2021/03/22 00:42:09;;;;;;;6.03;2.30;;;6.10;99.90;;;;;;4952860;28;20198;-86
2021/03/22 00:44:35;;;;;;;4.73;1.07;;;6.10;99.90;;;;;;4968127;28;20226;-87
2021/03/22 00:47:01;;;;;;;4.00;0.60;;;6.00;99.90;;;;;;5000911;28;20226;-87
2021/03/22 00:49:27;;;;;;;2.00;0.67;;;6.00;99.90;;;;;;4976506;28;20237;-85
2021/03/22 00:51:53;;;;;;;1.13;0.60;;;6.00;99.90;;;;;;4950342;28;20226;-86
2021/03/22 00:54:18;;;;;;;4.83;1.03;;;6.10;99.90;;;;;;4951155;28;20199;-85
2021/03/22 00:56:44;;;;;;;3.60;1.37;;;6.10;99.90;;;;;;4952407;28;20187;-86
2021/03/22 00:59:10;;;;;;;1.67;0.90;;;6.10;99.90;;;;;;4960468;28;20582;-85
2021/03/22 01:01:36;;;;;;;2.40;0.73;;;6.20;99.90;;;;;;4984033;28;20229;-85
2021/03/22 01:04:02;;;;;;;2.03;0.73;;;6.20;99.90;;;;;;4983277;28;20234;-85
2021/03/22 01:06:29;;;;;;;1.67;0.77;;;6.20;99.90;;;;;;4984411;28;20672;-85
2021/03/22 01:08:55;;;;;;;0.13;0.13;;;6.10;99.90;;;;;;5000961;28;20183;-87
2021/03/22 01:11:22;;;;;;;1.40;0.43;;;6.10;99.90;;;;;;4968141;28;20230;-86
2021/03/22 01:13:54;;;;;;;0.47;0.47;;;6.10;99.90;;;;;;4983698;28;20250;-84
2021/03/22 01:16:23;;;;;;;18.33;2.17;;;6.10;99.90;;;;;;5000614;28;20231;-87
2021/03/22 01:18:50;;;;;;;3.27;0.50;;;6.10;99.90;;;;;;5002257;28;20219;-87
2021/03/22 01:21:16;;;;;;;0.50;0.40;;;6.10;99.90;;;;;;4985539;28;20301;-85
2021/03/22 01:23:42;;;;;;;0.63;0.63;;;6.10;99.90;;;;;;4983674;28;20245;-85
2021/03/22 01:26:10;;;;;;;0.20;0.20;;;6.00;99.90;;;;;;4983100;28;20215;-86
2021/03/22 01:28:37;;;;;;;0.30;0.30;;;6.00;99.90;;;;;;4996337;28;20215;-86
2021/03/22 01:31:04;;;;;;;0.20;0.20;;;6.10;99.90;;;;;;4983166;28;20234;-87
2021/03/22 01:33:39;;;;;;;0.87;0.87;;;6.10;99.90;;;;;;4983999;28;20187;-87
2021/03/22 01:36:19;;;;;;;5.33;0.90;;;6.10;99.90;;;;;;4986047;28;20266;-84
2021/03/22 01:38:45;;;;;;;0.17;0.17;;;6.10;99.90;;;;;;5000220;28;20691;-84
2021/03/22 01:41:37;;;;;;;0.30;0.30;;;6.10;99.90;;;;;;4983107;28;20231;-85
2021/03/22 01:44:21;;;;;;;0.10;0.10;;;6.10;99.90;;;;;;4983718;28;20219;-85
2021/03/22 01:47:01;;;;;;;0.93;0.20;;;6.10;99.90;;;;;;5001624;28;20219;-84
2021/03/22 01:49:35;;;;;;;0.60;0.57;;;6.10;99.90;;;;;;5001254;28;20237;-84
2021/03/22 01:52:03;;;;;;;0.17;0.17;;;6.10;99.90;;;;;;4981721;28;20257;-84
2021/03/22 01:54:29;;;;;;;3.40;1.83;;;6.10;99.90;;;;;;4943733;28;20199;-84
2021/03/22 01:57:26;;;;;;;0.57;0.57;;;6.10;99.90;;;;;;4977593;28;20202;-85
2021/03/22 02:00:00;;;;;;;5.63;1.07;;;6.10;99.90;;;;;;4999561;28;20235;-86
2021/03/22 02:02:27;;;;;;;1.30;1.30;;;6.10;99.90;;;;;;4983003;28;20224;-86
2021/03/22 02:04:53;;;;;;;0.10;0.10;;;6.10;99.90;;;;;;4959281;28;20650;-87
2021/03/22 02:07:19;;;;;;;0.53;0.53;;;6.00;99.90;;;;;;4967371;28;20211;-86
2021/03/22 02:09:45;;;;;;;0.20;0.20;;;6.00;99.90;;;;;;4982860;28;20223;-87
2021/03/22 02:12:18;;;;;;;0.20;0.20;;;5.90;99.90;;;;;;4978231;28;20205;-85
2021/03/22 02:14:45;;;;;;;0.70;0.70;;;5.90;99.90;;;;;;5004005;28;20239;-86
2021/03/22 02:17:14;;;;;;;1.13;1.13;;;5.80;99.90;;;;;;5004312;28;20767;-85
2021/03/22 02:20:04;;;;;;;13.40;2.33;;;5.70;99.90;;;;;;4988388;28;20237;-85
2021/03/22 02:22:40;;;;;;;0.27;0.27;;;5.70;99.90;;;;;;5005945;28;20226;-85
2021/03/22 02:25:46;;;;;;;3.60;0.70;;;5.80;99.90;;;;;;5005738;28;20222;-85
2021/03/22 02:28:58;;;;;;;0.27;0.27;;;5.90;99.90;;;;;;4917396;28;20218;-86
2021/03/22 02:31:48;;;;;;;0.10;0.10;;;5.90;99.90;;;;;;4992306;28;20230;-87
2021/03/22 02:34:41;;;;;;;0.70;0.70;;;5.90;99.90;;;;;;5004460;28;20227;-85
2021/03/22 02:37:35;;;;;;;0.50;0.37;;;5.90;99.90;;;;;;5002758;28;20250;-85
2021/03/22 02:40:13;;;;;;;0.20;0.20;;;5.90;99.90;;;;;;4986458;28;20269;-85
2021/03/22 02:42:41;;;;;;;0.20;0.20;;;5.90;99.90;;;;;;5004601;28;20230;-85
2021/03/22 02:45:09;;;;;;;0.20;0.20;;;5.90;99.90;;;;;;5006196;28;20593;-84
2021/03/22 02:47:38;;;;;;;1.23;0.60;;;5.90;99.90;;;;;;4970294;28;20207;-85
2021/03/22 02:50:10;;;;;;;3.63;0.30;;;5.90;99.90;;;;;;5002700;28;20215;-85
2021/03/22 02:52:57;;;;;;;0.50;0.50;;;5.90;99.90;;;;;;5003194;28;20246;-84
2021/03/22 02:55:57;;;;;;;0.83;0.83;;;5.90;99.90;;;;;;5004612;28;20227;-85
2021/03/22 02:58:30;;;;;;;0.67;0.50;;;5.90;99.90;;;;;;5004173;28;20223;-85
2021/03/22 03:01:11;;;;;;;1.47;0.97;;;5.90;99.90;;;;;;5001017;28;20246;-85
2021/03/22 03:03:37;;;;;;;1.60;1.50;;;5.90;99.90;;;;;;4995799;28;20187;-85
2021/03/22 03:06:03;;;;;;;0.40;0.20;;;5.90;99.90;;;;;;4987482;28;20188;-86
2021/03/22 03:08:36;;;;;;;0.30;0.30;;;5.90;99.90;;;;;;4969394;28;20207;-85
2021/03/22 03:11:02;;;;;;;1.50;0.47;;;5.90;99.90;;;;;;4984140;28;20235;-85
2021/03/22 03:13:28;;;;;;;0.20;0.20;;;5.90;99.90;;;;;;4981276;28;20235;-87
2021/03/22 03:15:54;;;;;;;0.17;0.10;;;5.90;99.90;;;;;;4981569;28;20223;-85
2021/03/22 03:18:20;;;;;;;1.03;1.00;;;5.90;99.90;;;;;;4966302;28;20238;-84
2021/03/22 03:20:46;;;;;;;0.10;0.10;;;6.00;99.90;;;;;;4992355;28;20222;-85
2021/03/22 03:23:13;;;;;;;0.20;0.20;;;6.00;99.90;;;;;;4980672;28;20227;-87
2021/03/22 03:25:39;;;;;;;8.00;0.77;;;6.00;99.90;;;;;;4996639;28;20219;-85
2021/03/22 03:28:05;;;;;;;0.27;0.27;;;6.00;99.90;;;;;;4998819;28;20711;-87
2021/03/22 03:30:35;;;;;;;0.10;0.10;;;6.00;99.90;;;;;;5000057;28;20230;-87
2021/03/22 03:33:01;;;;;;;0.20;0.20;;;5.90;99.90;;;;;;4983435;28;20257;-87
2021/03/22 03:35:31;;;;;;;0.60;0.40;;;5.80;99.90;;;;;;4982280;28;20230;-84
2021/03/22 03:37:58;;;;;;;0.67;0.67;;;5.80;99.90;;;;;;4980875;28;20211;-86
2021/03/22 03:40:26;;;;;;;0.20;0.20;;;5.80;99.90;;;;;;4964887;28;20223;-83
2021/03/22 03:42:51;;;;;;;3.40;0.50;;;5.80;99.90;;;;;;4993568;28;20255;-85
2021/03/22 03:45:20;;;;;;;1.30;1.30;;;5.90;99.90;;;;;;4970715;28;20300;-86
2021/03/22 03:47:46;;;;;;;0.20;0.20;;;5.90;99.90;;;;;;4979879;28;20227;-85
2021/03/22 03:50:17;;;;;;;0.30;0.30;;;5.80;99.90;;;;;;4984501;28;20313;-86
2021/03/22 03:52:43;;;;;;;0.20;0.20;;;5.70;99.90;;;;;;4982617;28;20223;-86
2021/03/22 03:55:09;;;;;;;0.50;0.50;;;5.70;99.90;;;;;;4979481;28;20238;-86
2021/03/22 03:57:35;;;;;;;0.63;0.40;;;5.70;99.90;;;;;;5000784;28;20653;-86
2021/03/22 04:00:01;;;;;;;0.67;0.67;;;5.70;99.90;;;;;;4985550;28;20222;-86
2021/03/22 04:02:26;;;;;;;0.60;0.60;;;5.60;99.90;;;;;;4969293;28;21165;-86
2021/03/22 04:04:52;;;;;;;0.27;0.27;;;5.70;99.90;;;;;;4984492;28;20360;-86
2021/03/22 04:07:18;;;;;;;0.40;0.40;;;5.70;99.90;;;;;;4984311;28;20250;-86
2021/03/22 04:09:43;;;;;;;3.73;0.87;;;5.80;99.90;;;;;;4967853;28;20266;-85
2021/03/22 04:12:10;;;;;;;0.20;0.20;;;5.80;99.90;;;;;;4952823;28;20199;-87
2021/03/22 04:14:36;;;;;;;0.20;0.20;;;5.90;99.90;;;;;;4953032;28;20678;-87
2021/03/22 04:17:02;;;;;;;0.10;0.10;;;5.90;99.90;;;;;;4984856;28;20338;-86
2021/03/22 04:19:27;;;;;;;0.10;0.10;;;5.80;99.90;;;;;;5001391;28;20219;-87
2021/03/22 04:21:53;;;;;;;0.20;0.20;;;5.80;99.90;;;;;;4967270;28;20226;-86
2021/03/22 04:24:20;;;;;;;0.40;0.40;;;5.80;99.90;;;;;;4983997;28;20302;-86
2021/03/22 04:26:45;;;;;;;0.10;0.10;;;5.80;99.90;;;;;;4986165;28;20682;-87
2021/03/22 04:29:11;;;;;;;0.50;0.50;;;5.80;99.90;;;;;;4967905;28;20778;-86
2021/03/22 04:31:38;;;;;;;0.20;0.20;;;5.70;99.90;;;;;;4965080;28;20223;-86
2021/03/22 04:34:04;;;;;;;1.50;1.40;;;5.70;99.90;;;;;;4983047;28;20242;-87
2021/03/22 04:36:35;;;;;;;1.00;0.30;;;5.60;99.90;;;;;;4984007;28;20215;-86
2021/03/22 04:39:03;;;;;;;0.50;0.50;;;5.60;99.90;;;;;;5002552;28;20267;-84
2021/03/22 04:41:28;;;;;;;1.80;1.70;;;5.60;99.90;;;;;;4980316;28;20289;-84
2021/03/22 04:43:54;;;;;;;0.20;0.20;;;5.50;99.90;;;;;;4978997;28;20688;-85
2021/03/22 04:46:20;;;;;;;1.23;0.73;;;5.50;99.90;;;;;;4985080;28;20226;-85
2021/03/22 04:48:46;;;;;;;0.20;0.20;;;5.50;99.90;;;;;;4968057;28;20221;-85
2021/03/22 04:51:12;;;;;;;1.10;0.73;;;5.60;99.90;;;;;;4964570;28;20575;-84
2021/03/22 04:53:38;;;;;;;0.10;0.10;;;5.60;99.90;;;;;;4979324;28;20230;-84
2021/03/22 04:56:07;;;;;;;1.80;0.90;;;5.70;99.90;;;;;;4981298;28;20219;-87
2021/03/22 04:58:38;;;;;;;0.10;0.10;;;5.70;99.90;;;;;;5000021;28;20703;-84
2021/03/22 05:01:05;;;;;;;0.20;0.20;;;5.60;99.90;;;;;;4992604;28;20705;-86
2021/03/22 05:03:31;;;;;;;0.10;0.10;;;5.60;99.90;;;;;;4982885;28;20645;-87
2021/03/22 05:05:57;;;;;;;6.20;0.53;;;5.60;99.90;;;;;;4962043;28;20245;-86
2021/03/22 05:08:24;;;;;;;0.20;0.20;;;5.60;99.90;;;;;;4984219;28;21164;-86
2021/03/22 05:10:53;;;;;;;0.73;0.73;;;5.60;99.90;;;;;;4984593;28;20325;-86
2021/03/22 05:13:22;;;;;;;0.30;0.30;;;5.70;99.90;;;;;;4984094;28;20218;-86
2021/03/22 05:15:50;;;;;;;2.23;0.70;;;5.70;99.90;;;;;;4984500;28;20238;-84
2021/03/22 05:18:16;;;;;;;12.57;1.53;;;5.70;99.90;;;;;;4985133;28;20218;-84
2021/03/22 05:20:45;;;;;;;0.30;0.30;;;5.70;99.90;;;;;;4983482;28;20227;-84
2021/03/22 05:23:17;;;;;;;0.27;0.27;;;5.60;99.90;;;;;;5000152;28;21200;-86
2021/03/22 05:25:43;;;;;;;0.43;0.43;;;5.60;99.90;;;;;;5001689;28;20282;-86
2021/03/22 05:28:11;;;;;;;5.17;1.10;;;5.60;99.90;;;;;;4967633;28;20223;-85
2021/03/22 05:30:38;;;;;;;0.30;0.30;;;5.50;99.90;;;;;;5000070;28;20199;-85
2021/03/22 05:33:09;;;;;;;0.20;0.20;;;5.50;99.90;;;;;;5003018;28;20667;-85
2021/03/22 05:35:36;;;;;;;0.60;0.60;;;5.40;99.90;;;;;;4983130;28;20218;-87
2021/03/22 05:38:04;;;;;;;1.77;1.67;;;5.50;99.90;;;;;;4997972;28;20262;-87
2021/03/22 05:40:50;;;;;;;0.40;0.40;;;5.50;99.90;;;;;;4980872;28;20239;-87
2021/03/22 05:43:40;;;;;;;2.80;0.50;;;5.60;99.90;;;;;;4993431;28;20218;-86
2021/03/22 05:46:29;;;;;;;0.43;0.43;;;5.70;99.90;;;;;;4999681;28;20264;-87
2021/03/22 05:49:13;;;;;;;0.10;0.10;;;5.70;99.90;;;;;;4985039;28;20272;-86
2021/03/22 05:52:15;;;;;;;0.20;0.20;;;5.80;99.90;;;;;;4995658;28;20221;-86
2021/03/22 05:54:59;;;;;;;0.20;0.20;;;5.90;99.90;;;;;;5003445;28;20745;-87
2021/03/22 05:57:52;;;;;;;0.20;0.20;;;5.90;99.90;;;;;;5005017;28;20193;-86
2021/03/22 06:00:43;;;;;;;5.20;0.83;;;5.80;99.90;;;;;;4997478;28;20265;-86
2021/03/22 06:03:27;;;;;;;0.30;0.30;;;5.90;99.90;;;;;;4999605;28;20310;-86
2021/03/22 06:06:03;;;;;;;0.77;0.77;;;5.90;99.90;;;;;;5004922;28;20230;-86
2021/03/22 06:08:54;;;;;;;1.03;0.87;;;5.90;99.90;;;;;;4986973;28;20273;-86
2021/03/22 06:11:35;;;;;;;1.53;0.40;;;5.90;99.90;;;;;;4987294;28;20215;-86
2021/03/22 06:14:31;;;;;;;2.87;0.37;;;6.00;99.90;;;;;;5005373;28;20596;-86
2021/03/22 06:17:20;;;;;;;11.07;0.67;;;6.00;99.90;;;;;;5005049;28;20230;-86
2021/03/22 06:19:54;;;;;;;0.07;0.07;;;5.90;99.90;;;;;;4983669;28;20227;-87
2021/03/22 06:22:29;;;;;;;0.30;0.30;;;5.90;99.90;;;;;;4986506;28;20219;-85
2021/03/22 06:24:56;;;;;;;2.67;0.30;;;5.90;99.90;;;;;;4987468;28;20210;-85
2021/03/22 06:27:22;;;;;;;0.30;0.30;;;5.80;99.90;;;;;;4963560;28;20660;-86
2021/03/22 06:29:51;;;;;;;0.10;0.10;;;5.80;99.90;;;;;;4988527;28;20187;-85
2021/03/22 06:32:38;;;;;;;0.30;0.30;;;5.90;99.90;;;;;;4985439;28;20305;-85
2021/03/22 06:35:14;;;;;;;0.23;0.23;;;5.80;99.90;;;;;;5002542;28;20224;-85
2021/03/22 06:37:40;;;;;;;0.87;0.50;;;5.90;99.90;;;;;;4986570;28;20211;-88
2021/03/22 06:40:14;;;;;;;1.73;0.60;;;5.90;99.90;;;;;;4952938;28;20293;-85
2021/03/22 06:42:42;;;;;;;1.87;0.87;;;6.00;99.90;;;;;;5004926;28;20301;-86
2021/03/22 06:45:31;;;;;;;3.73;1.00;;;6.10;99.90;;;;;;4968906;28;20230;-86
2021/03/22 06:48:30;;;;;;;0.50;0.50;;;6.30;99.90;;;;;;4986019;28;20226;-86
2021/03/22 06:51:05;;;;;;;0.27;0.20;;;6.60;99.90;;;;;;5001359;28;21208;-87
2021/03/22 06:53:51;;;;;;;0.73;0.73;;;6.90;99.90;;;;;;5002706;28;20223;-86
2021/03/22 06:56:29;;;;;;;0.30;0.30;;;6.80;99.90;;;;;;5004992;28;20249;-87
2021/03/22 06:59:10;;;;;;;0.50;0.10;;;6.70;99.90;;;;;;5002664;28;20215;-85
2021/03/22 07:01:38;;;;;;;0.10;0.10;;;6.90;99.90;;;;;;5001805;28;20239;-85
2021/03/22 07:04:32;;;;;;;0.20;0.20;;;7.20;99.90;;;;;;4985932;28;20307;-84
2021/03/22 07:07:18;;;;;;;0.13;0.13;;;7.30;99.90;;;;;;5004994;28;20207;-86
2021/03/22 07:09:56;;;;;;;0.10;0.10;;;7.00;99.90;;;;;;4986963;28;21356;-88
2021/03/22 07:12:30;;;;;;;0.20;0.20;;;6.90;99.90;;;;;;4983931;28;20195;-86
2021/03/22 07:15:17;;;;;;;0.20;0.20;;;6.80;99.90;;;;;;4992941;28;20234;-85
2021/03/22 07:17:43;;;;;;;0.20;0.20;;;6.70;99.90;;;;;;4994325;28;20234;-86
2021/03/22 07:20:18;;;;;;;13.23;0.40;;;6.50;99.90;;;;;;4985964;28;20284;-85
2021/03/22 07:22:44;;;;;;;1.10;0.40;;;6.50;99.90;;;;;;4984655;28;20230;-85
2021/03/22 07:25:27;;;;;;;0.30;0.30;;;6.60;99.90;;;;;;4952024;28;20598;-85
2021/03/22 07:28:00;;;;;;;0.20;0.20;;;6.60;99.90;;;;;;5003518;28;20233;-85
2021/03/22 07:30:54;;;;;;;0.30;0.30;;;6.70;99.90;;;;;;4980134;28;20196;-85
2021/03/22 07:33:49;;;;;;;0.17;0.13;;;6.70;99.90;;;;;;5001046;28;21149;-87
2021/03/22 07:36:23;;;;;;;0.20;0.20;;;6.80;99.90;;;;;;4984106;28;20175;-87
2021/03/22 07:39:04;;;;;;;1.70;0.77;;;6.80;99.90;;;;;;4994470;28;20354;-87
2021/03/22 07:42:05;;;;;;;0.23;0.23;;;6.90;99.90;;;;;;4985145;28;20238;-87
2021/03/22 07:44:46;;;;;;;0.80;0.80;;;6.90;99.90;;;;;;5003115;28;20215;-86
2021/03/22 07:47:26;;;;;;;0.30;0.30;;;7.10;99.90;;;;;;4994297;28;20223;-86
2021/03/22 07:50:07;;;;;;;2.93;0.57;;;7.20;99.90;;;;;;4985887;28;20795;-86
2021/03/22 07:52:51;;;;;;;0.70;0.70;;;7.20;99.90;;;;;;5001263;28;20227;-88
2021/03/22 07:55:50;;;;;;;0.47;0.40;;;7.30;99.90;;;;;;5001626;28;20315;-85
2021/03/22 07:58:55;;;;;;;0.87;0.87;;;7.40;99.90;;;;;;4995263;28;20218;-87
2021/03/22 08:01:44;;;;;;;0.30;0.30;;;7.40;99.90;;;;;;4999723;28;20781;-87
2021/03/22 08:04:38;;;;;;;5.60;1.10;;;7.50;99.90;;;;;;4984908;28;20599;-87
2021/03/22 08:07:14;;;;;;;1.13;0.73;;;7.70;99.90;;;;;;5000689;28;20219;-87
2021/03/22 08:09:58;;;;;;;0.30;0.30;;;7.60;99.90;;;;;;4994634;28;20226;-87
2021/03/22 08:12:36;;;;;;;8.53;2.03;;;7.50;99.90;;;;;;4992298;28;20199;-87
2021/03/22 08:15:13;;;;;;;4.70;0.77;;;7.50;99.90;;;;;;4997303;28;20310;-87
2021/03/22 08:18:02;;;;;;;0.63;0.63;;;7.60;99.90;;;;;;4981700;28;20676;-86
2021/03/22 08:20:34;;;;;;;0.97;0.53;;;7.50;99.90;;;;;;4980048;28;20322;-86
2021/03/22 08:23:19;;;;;;;3.10;0.70;;;7.70;99.90;;;;;;4982478;28;20624;-86
2021/03/22 08:25:50;;;;;;;0.30;0.30;;;7.60;99.90;;;;;;4992896;28;20224;-86
2021/03/22 08:28:31;;;;;;;0.30;0.30;;;7.80;99.90;;;;;;4980932;28;20220;-85
2021/03/22 08:31:11;;;;;;;4.53;1.53;;;7.80;99.90;;;;;;4991721;28;20227;-90
2021/03/22 08:33:49;;;;;;;0.87;0.87;;;7.90;99.90;;;;;;4980759;28;20196;-86
2021/03/22 08:36:21;;;;;;;0.20;0.20;;;7.90;99.90;;;;;;4999784;28;20246;-86
2021/03/22 08:39:01;;;;;;;6.13;0.20;;;7.90;99.90;;;;;;4998808;28;20371;-86
2021/03/22 08:41:54;;;;;;;0.20;0.20;;;7.80;99.90;;;;;;4989250;28;20577;-86
2021/03/22 08:44:29;;;;;;;0.20;0.20;;;7.80;99.90;;;;;;4978717;28;20247;-85
2021/03/22 08:47:08;;;;;;;0.20;0.20;;;7.90;99.90;;;;;;4982004;28;20286;-86
2021/03/22 08:49:53;;;;;;;0.50;0.50;;;7.80;99.90;;;;;;4973316;28;20215;-86
2021/03/22 08:52:30;;;;;;;0.10;0.10;;;7.80;99.90;;;;;;4980297;28;20216;-85
2021/03/22 08:55:18;;;;;;;0.33;0.33;;;7.80;99.90;;;;;;4981003;28;20775;-86
2021/03/22 08:58:16;;;;;;;0.17;0.17;;;8.00;99.90;;;;;;4980870;28;20224;-85
2021/03/22 09:00:45;;;;;;;1.13;0.30;;;8.00;99.90;;;;;;4981476;28;20231;-86
2021/03/22 09:03:14;;;;;;;0.20;0.20;;;8.00;99.90;;;;;;4973020;28;20184;-85
2021/03/22 09:06:01;;;;;;;0.70;0.70;;;7.90;99.90;;;;;;4971570;28;20776;-85
2021/03/22 09:08:27;;;;;;;0.20;0.20;;;7.80;99.90;;;;;;4972015;28;20230;-85
2021/03/22 09:10:54;;;;;;;0.30;0.30;;;8.00;99.90;;;;;;4980112;28;20219;-85
2021/03/22 09:13:34;;;;;;;0.30;0.30;;;8.00;99.90;;;;;;4981146;28;21205;-85
2021/03/22 09:16:11;;;;;;;0.20;0.20;;;7.90;99.90;;;;;;4985148;28;20224;-87
2021/03/22 09:19:12;;;;;;;0.13;0.13;;;8.00;99.90;;;;;;4971246;28;20861;-86
2021/03/22 09:21:43;;;;;;;0.20;0.20;;;7.90;99.90;;;;;;4969611;28;20215;-85
2021/03/22 09:24:32;;;;;;;0.40;0.40;;;8.00;99.90;;;;;;4992113;28;20326;-85
2021/03/22 09:26:59;;;;;;;0.50;0.50;;;8.10;99.90;;;;;;4962672;28;20219;-85
2021/03/22 09:29:38;;;;;;;1.40;0.30;;;8.10;99.90;;;;;;4975907;28;20222;-85
2021/03/22 09:32:23;;;;;;;0.10;0.10;;;8.10;99.90;;;;;;4992613;28;20212;-86
2021/03/22 09:34:50;;;;;;;0.20;0.20;;;8.00;99.90;;;;;;4991880;28;20267;-85
2021/03/22 09:37:48;;;;;;;0.50;0.50;;;8.00;99.90;;;;;;4973561;28;20220;-84
2021/03/22 09:40:23;;;;;;;0.00;0.00;;;8.30;99.90;;;;;;4971141;28;20224;-85
2021/03/22 09:43:07;;;;;;;0.43;0.40;;;8.70;99.90;;;;;;4972144;28;20231;-86
2021/03/22 09:45:56;;;;;;;0.73;0.73;;;8.70;99.90;;;;;;4975508;28;20195;-86
2021/03/22 09:48:33;;;;;;;0.30;0.30;;;8.90;99.90;;;;;;4976495;28;20719;-86
2021/03/22 09:51:03;;;;;;;0.67;0.67;;;8.70;99.90;;;;;;4977760;28;20204;-86
2021/03/22 09:53:52;;;;;;;0.57;0.57;;;8.80;99.90;;;;;;4977673;28;20724;-86
2021/03/22 09:56:29;;;;;;;0.30;0.30;;;9.00;99.90;;;;;;4975584;28;20611;-86
2021/03/22 09:59:34;;;;;;;0.40;0.33;;;9.00;99.90;;;;;;4975550;28;20735;-85
2021/03/22 10:02:20;;;;;;;0.53;0.53;;;9.00;99.90;;;;;;4896693;29;20246;-86
2021/03/22 10:05:10;;;;;;;0.60;0.53;;;9.00;99.90;;;;;;4972166;28;20215;-85
2021/03/22 10:07:39;;;;;;;0.20;0.20;;;8.60;99.90;;;;;;4994137;28;20224;-86
2021/03/22 10:10:37;;;;;;;0.20;0.20;;;8.50;99.90;;;;;;4976161;28;20231;-85
2021/03/22 10:13:17;;;;;;;4.27;0.27;;;8.70;99.90;;;;;;4965534;28;20661;-85
2021/03/22 10:15:54;;;;;;;0.30;0.30;;;8.70;99.90;;;;;;4998396;28;20236;-85
2021/03/22 10:18:29;;;;;;;0.40;0.30;;;8.50;99.90;;;;;;4987066;28;20534;-85
2021/03/22 10:21:12;;;;;;;0.50;0.50;;;8.50;99.90;;;;;;4988981;28;20274;-86
2021/03/22 10:24:00;;;;;;;5.63;0.50;;;8.60;99.90;;;;;;5002412;28;20230;-85
2021/03/22 10:26:39;;;;;;;0.20;0.20;;;8.80;99.90;;;;;;4977775;28;20227;-86
2021/03/22 10:29:26;;;;;;;0.33;0.33;;;8.80;99.90;;;;;;5003653;28;20207;-86
2021/03/22 10:32:08;;;;;;;0.10;0.10;;;8.60;99.90;;;;;;4995451;28;20269;-85
2021/03/22 10:35:01;;;;;;;0.40;0.40;;;8.50;99.90;;;;;;4977942;28;20278;-85
2021/03/22 10:37:37;;;;;;;0.40;0.40;;;8.30;99.90;;;;;;4984349;28;20628;-84
2021/03/22 10:40:07;;;;;;;1.63;0.50;;;8.30;99.90;;;;;;4983550;28;20243;-84
2021/03/22 10:42:40;;;;;;;0.10;0.10;;;8.40;99.90;;;;;;4984099;28;20344;-85
2021/03/22 10:45:24;;;;;;;0.20;0.20;;;8.20;99.90;;;;;;4985447;28;20660;-86
2021/03/22 10:47:56;;;;;;;0.30;0.30;;;8.50;99.90;;;;;;4983664;28;20251;-86
2021/03/22 10:50:35;;;;;;;0.30;0.30;;;9.00;99.90;;;;;;4985316;28;20230;-86
2021/03/22 10:53:16;;;;;;;1.13;0.50;;;9.20;99.90;;;;;;4982080;28;20238;-84
2021/03/22 10:55:45;;;;;;;0.77;0.30;;;9.00;99.90;;;;;;4983714;28;20311;-85
2021/03/22 10:58:22;;;;;;;2.90;0.50;;;9.20;99.90;;;;;;4986572;28;20224;-86
2021/03/22 11:00:48;;;;;;;2.00;0.40;;;9.00;99.90;;;;;;4984054;28;20230;-85
2021/03/22 11:03:24;;;;;;;0.67;0.67;;;8.90;99.90;;;;;;4968618;28;20314;-86
2021/03/22 11:05:53;;;;;;;0.20;0.20;;;8.90;99.90;;;;;;4966835;28;20231;-85
2021/03/22 11:08:37;;;;;;;0.93;0.70;;;9.00;99.90;;;;;;4999252;28;20220;-85
2021/03/22 11:11:09;;;;;;;2.70;0.60;;;9.00;99.90;;;;;;4990203;28;20224;-85
2021/03/22 11:13:38;;;;;;;0.20;0.20;;;9.00;99.90;;;;;;4991752;28;20215;-83
2021/03/22 11:16:05;;;;;;;1.93;0.33;;;9.20;99.90;;;;;;4999870;28;20313;-87
2021/03/22 11:18:32;;;;;;;0.77;0.60;;;9.00;99.90;;;;;;4952063;28;20203;-84
2021/03/22 11:20:59;;;;;;;1.23;0.57;;;9.00;99.90;;;;;;4986989;28;20200;-84
2021/03/22 11:23:40;;;;;;;0.50;0.43;;;8.80;99.90;;;;;;5004497;28;20254;-84
2021/03/22 11:26:17;;;;;;;0.30;0.30;;;8.80;99.90;;;;;;5004092;28;20281;-87
2021/03/22 11:28:44;;;;;;;0.20;0.20;;;8.70;99.90;;;;;;4985434;28;20233;-84
2021/03/22 11:31:36;;;;;;;0.50;0.50;;;8.70;99.90;;;;;;4985414;28;20269;-85
2021/03/22 11:34:01;;;;;;;0.30;0.30;;;8.70;99.90;;;;;;4986246;28;20223;-85
2021/03/22 11:36:42;;;;;;;0.90;0.90;;;8.40;99.90;;;;;;5002801;28;20230;-86
2021/03/22 11:39:26;;;;;;;0.17;0.17;;;8.40;99.90;;;;;;4997252;28;20191;-84
2021/03/22 11:41:52;;;;;;;0.20;0.20;;;8.50;99.90;;;;;;5002360;28;20231;-86
2021/03/22 11:44:32;;;;;;;1.80;0.20;;;8.30;99.90;;;;;;5000456;28;20276;-84
2021/03/22 11:47:27;;;;;;;0.37;0.37;;;8.40;99.90;;;;;;4984424;28;20231;-84
2021/03/22 11:49:54;;;;;;;0.87;0.30;;;8.40;99.90;;;;;;4994888;28;20604;-86
2021/03/22 11:52:24;;;;;;;0.20;0.20;;;8.30;99.90;;;;;;4959128;28;20705;-85
2021/03/22 11:55:00;;;;;;;0.53;0.53;;;8.10;99.90;;;;;;4981931;28;20302;-85
2021/03/22 11:58:07;;;;;;;;;;;;;;;;;;;;;
2021/03/22 12:00:55;;;;;;;;;;;;;;;;;;;;;
2021/03/22 12:06:30;;;;;;;2.57;0.53;;;8.10;99.90;;;;;;5007314;28;20283;-82
2021/03/22 12:09:35;;;;;;;0.97;0.97;;;8.20;99.90;;;;;;4969115;28;20288;-85
2021/03/22 12:13:21;;;;;;;;;;;;;;;;;;;;;
2021/03/22 12:22:26;;;;;;;0.30;0.30;;;8.50;99.90;;;;;;4960576;28;20203;-84
2021/03/22 12:24:55;;;;;;;0.17;0.17;;;8.60;99.90;;;;;;4994082;28;21098;-86
2021/03/22 12:27:24;;;;;;;0.73;0.70;;;8.60;99.90;;;;;;4974406;28;20199;-84
2021/03/22 12:30:10;;;;;;;0.20;0.20;;;9.00;99.90;;;;;;4922464;28;20346;-85
2021/03/22 12:33:14;;;;;;;0.07;0.07;;;9.00;99.90;;;;;;4971397;28;20218;-86
2021/03/22 12:36:23;;;;;;;0.67;0.67;;;9.20;99.90;;;;;;4959961;28;20247;-86
2021/03/22 12:39:17;;;;;;;0.33;0.33;;;9.00;99.90;;;;;;4936369;28;20221;-87
2021/03/22 12:42:14;;;;;;;0.10;0.10;;;9.20;99.90;;;;;;4911767;28;20284;-86
2021/03/22 12:44:40;;;;;;;2.33;0.87;;;9.40;99.90;;;;;;4983427;28;21166;-86
2021/03/22 12:47:06;;;;;;;0.20;0.20;;;9.40;99.90;;;;;;4967163;28;20235;-86
2021/03/22 12:49:32;;;;;;;6.83;1.23;;;9.20;99.90;;;;;;4950550;28;20227;-87
2021/03/22 12:51:58;;;;;;;0.30;0.30;;;9.10;99.90;;;;;;4965345;28;20227;-85
2021/03/22 12:54:23;;;;;;;0.90;0.57;;;9.10;99.90;;;;;;5002727;28;20179;-87
2021/03/22 12:56:49;;;;;;;1.93;0.43;;;9.30;99.90;;;;;;4951707;28;20735;-86
2021/03/22 12:59:33;;;;;;;2.73;1.00;;;9.30;99.90;;;;;;4965841;28;20226;-87
2021/03/22 13:02:01;;;;;;;0.10;0.10;;;9.30;99.90;;;;;;4999799;28;20707;-87
2021/03/22 13:04:28;;;;;;;0.20;0.20;;;9.00;99.90;;;;;;4999838;28;20223;-86
2021/03/22 13:06:54;;;;;;;0.10;0.10;;;8.80;99.90;;;;;;5000037;28;20308;-87
2021/03/22 13:09:21;;;;;;;5.00;0.30;;;8.90;99.90;;;;;;4983641;28;20195;-85
2021/03/22 13:11:47;;;;;;;1.47;0.70;;;8.80;99.90;;;;;;4984519;28;20523;-86
2021/03/22 13:14:27;;;;;;;0.47;0.47;;;8.80;99.90;;;;;;4919384;28;20725;-87
2021/03/22 13:17:00;;;;;;;2.10;0.40;;;8.70;99.90;;;;;;4915621;28;20240;-86
2021/03/22 13:19:42;;;;;;;;;;;;;;;;;;;;;
2021/03/22 13:22:33;;;;;;;;;;;;;;;;;;;;;
2021/03/22 13:32:04;;;;;;;;;;;;;;;;;;;;;
2021/03/22 13:35:03;;;;;;;;;;;;;;;;;;;;;
2021/03/22 13:38:02;;;;;;;0.20;0.20;;;9.00;99.90;;;;;;4879188;28;20305;-87
2021/03/22 13:41:18;;;;;;;0.40;0.40;;;8.70;99.90;;;;;;4870212;28;20234;-87
2021/03/22 13:44:14;;;;;;;0.20;0.20;;;8.80;99.90;;;;;;4930963;28;20197;-86
2021/03/22 13:47:00;;;;;;;0.27;0.27;;;8.90;99.90;;;;;;4920071;28;20223;-87
2021/03/22 13:49:38;;;;;;;0.20;0.20;;;9.10;99.90;;;;;;4924885;28;20280;-87
2021/03/22 13:52:29;;;;;;;0.27;0.27;;;9.00;99.90;;;;;;4936298;28;20280;-88
2021/03/22 13:55:24;;;;;;;0.20;0.20;;;9.00;99.90;;;;;;4921503;28;20615;-86
2021/03/22 13:57:50;;;;;;;0.20;0.20;;;8.80;99.90;;;;;;4932212;28;20231;-87
2021/03/22 14:00:17;;;;;;;3.97;0.97;;;8.60;99.90;;;;;;4968554;28;20208;-87
2021/03/22 14:02:43;;;;;;;0.30;0.30;;;8.60;99.90;;;;;;4967348;28;20863;-87
2021/03/22 14:05:17;;;;;;;0.40;0.40;;;8.50;99.90;;;;;;4945123;28;20315;-87
2021/03/22 14:07:44;;;;;;;0.10;0.10;;;8.50;99.90;;;;;;4961162;28;20283;-86